Time;durP1;ratioP1;P1;durP2;ratioP2;P2;SDS_P1;SDS_P2;PMS_P1;PMS_P2;Temp;Humidity;BMP_temperature;BMP_pressure;BME280_temperature;BME280_humidity;BME280_pressure;Samples;Min_cycle;Max_cycle;Signal;HPM_P1;HPM_P2
2022/01/26 00:08:44;;;;;;;29.53;14.20;;;2.80;99.90;;;;;;4218534;34;20170;-65
2022/01/26 00:12:24;;;;;;;33.07;14.67;;;2.90;99.90;;;;;;4208033;34;20247;-65
2022/01/26 01:09:55;;;;;;;31.23;14.90;;;2.90;99.90;;;;;;4965752;28;20167;-65
2022/01/26 01:16:54;;;;;;;34.93;17.13;;;2.80;99.90;;;;;;4452141;32;20244;-66
2022/01/26 01:36:23;;;;;;;43.07;18.80;;;2.80;99.90;;;;;;4243405;33;20179;-66
2022/01/26 01:39:20;;;;;;;44.17;20.20;;;2.80;99.90;;;;;;4232414;33;20178;-66
2022/01/26 01:59:39;;;;;;;42.63;19.90;;;2.80;99.90;;;;;;5314234;27;20280;-66
2022/01/26 02:06:37;;;;;;;47.33;20.33;;;3.00;99.90;;;;;;5166451;27;20140;-66
2022/01/26 03:35:40;;;;;;;;;;;;;;;;;;;;;
2022/01/26 03:55:04;;;;;;;41.27;20.10;;;2.70;99.90;;;;;;4262958;33;20265;-65
2022/01/26 03:59:17;;;;;;;;;;;;;;;;;;;;;
2022/01/26 04:03:03;;;;;;;48.23;20.43;;;2.70;99.90;;;;;;4271452;33;20185;-65
2022/01/26 04:06:33;;;;;;;45.17;19.17;;;2.70;99.90;;;;;;4242213;33;20230;-65
2022/01/26 04:10:23;;;;;;;46.40;20.07;;;2.70;99.90;;;;;;4229280;34;20209;-66
2022/01/26 04:13:51;;;;;;;47.33;20.67;;;2.60;99.90;;;;;;4215160;34;20205;-66
2022/01/26 04:17:49;;;;;;;;;;;;;;;;;;;;;
2022/01/26 04:35:30;;;;;;;44.33;18.17;;;2.50;99.90;;;;;;5119769;28;20125;-65
2022/01/26 04:39:07;;;;;;;40.73;17.50;;;2.50;99.90;;;;;;5040417;28;20164;-66
2022/01/26 04:43:35;;;;;;;;;;;;;;;;;;;;;
2022/01/26 04:47:07;;;;;;;32.13;14.33;;;2.50;99.90;;;;;;4942435;29;20498;-65
2022/01/26 04:50:43;;;;;;;36.07;15.53;;;2.40;99.90;;;;;;4942205;29;20212;-66
2022/01/26 05:02:56;;;;;;;;;;;;;;;;;;;;;
2022/01/26 05:10:28;;;;;;;32.90;14.50;;;2.30;99.90;;;;;;4314902;33;20177;-65
2022/01/26 05:25:30;;;;;;;28.20;11.83;;;2.20;99.90;;;;;;4354109;32;20187;-65
2022/01/26 05:32:47;;;;;;;21.23;10.60;;;2.00;99.90;;;;;;4230691;33;20233;-66
2022/01/26 05:40:22;;;;;;;21.87;10.10;;;2.00;99.90;;;;;;4188998;33;20168;-65
2022/01/26 05:47:20;;;;;;;22.03;9.63;;;2.00;99.90;;;;;;4436721;31;20601;-65
2022/01/26 05:54:35;;;;;;;24.53;11.30;;;2.20;99.90;;;;;;4314755;33;20206;-66
2022/01/26 05:57:46;;;;;;;26.97;11.93;;;2.10;99.90;;;;;;4297905;33;20209;-66
2022/01/26 06:01:21;;;;;;;24.00;10.70;;;2.10;99.90;;;;;;4285972;33;20221;-66
2022/01/26 06:08:31;;;;;;;33.23;13.67;;;2.10;99.90;;;;;;4270427;33;20170;-66
2022/01/26 06:11:08;;;;;;;37.67;15.27;;;2.20;99.90;;;;;;4263404;33;20194;-66
2022/01/26 06:14:35;;;;;;;38.53;15.17;;;2.20;99.90;;;;;;4305737;33;20224;-66
2022/01/26 06:18:33;;;;;;;45.50;16.90;;;2.10;99.90;;;;;;4214820;34;20184;-66
2022/01/26 06:29:14;;;;;;;48.90;18.67;;;2.20;99.90;;;;;;4467357;32;20208;-66
2022/01/26 06:32:38;;;;;;;47.43;18.00;;;2.10;99.90;;;;;;4403869;32;20481;-66
2022/01/26 06:39:23;;;;;;;44.47;16.53;;;2.10;99.90;;;;;;4359184;33;20143;-66
2022/01/26 06:51:03;;;;;;;46.57;18.40;;;2.20;99.90;;;;;;4231245;33;20147;-66
2022/01/26 06:56:52;;;;;;;44.77;18.40;;;2.30;99.90;;;;;;4233699;33;20175;-66
2022/01/26 06:59:18;;;;;;;40.20;17.77;;;2.30;99.90;;;;;;4259062;33;20182;-66
2022/01/26 07:02:23;;;;;;;46.93;18.57;;;2.30;99.90;;;;;;4270441;33;20163;-66
2022/01/26 07:04:52;;;;;;;40.17;17.43;;;2.30;99.90;;;;;;4203724;34;20175;-66
2022/01/26 07:07:22;;;;;;;42.27;17.43;;;2.30;99.90;;;;;;4203186;34;20184;-66
2022/01/26 07:09:51;;;;;;;42.97;17.63;;;2.20;99.90;;;;;;4245567;33;20560;-66
2022/01/26 07:12:18;;;;;;;39.50;17.53;;;2.20;99.90;;;;;;4266319;33;20270;-66
2022/01/26 07:21:27;;;;;;;39.60;16.67;;;2.30;99.90;;;;;;4300491;33;20165;-66
2022/01/26 07:23:58;;;;;;;38.43;16.80;;;2.30;99.90;;;;;;4329322;33;20192;-66
2022/01/26 07:26:32;;;;;;;34.87;15.03;;;2.20;99.90;;;;;;4320049;33;20461;-66
2022/01/26 07:29:29;;;;;;;37.97;15.90;;;2.20;99.90;;;;;;4357858;33;20206;-66
2022/01/26 07:32:06;;;;;;;37.43;15.23;;;2.20;99.90;;;;;;4344331;33;20169;-66
2022/01/26 07:34:48;;;;;;;37.53;15.80;;;2.10;99.90;;;;;;4324052;32;20199;-66
2022/01/26 07:37:47;;;;;;;32.60;14.67;;;2.20;99.90;;;;;;4379770;32;20305;-65
2022/01/26 07:40:57;;;;;;;33.07;13.87;;;2.10;99.90;;;;;;4377153;32;20214;-65
2022/01/26 07:44:07;;;;;;;40.53;15.93;;;2.20;99.90;;;;;;4379785;32;20179;-66
2022/01/26 07:47:23;;;;;;;38.93;15.83;;;2.10;99.90;;;;;;4333211;33;20231;-66
2022/01/26 07:50:11;;;;;;;38.20;15.27;;;2.20;99.90;;;;;;4331458;33;20210;-66
2022/01/26 07:52:59;;;;;;;34.03;15.27;;;2.30;99.90;;;;;;4333083;33;20185;-66
2022/01/26 07:55:56;;;;;;;39.57;16.20;;;2.30;99.90;;;;;;4333232;33;20161;-65
2022/01/26 07:59:01;;;;;;;34.47;14.57;;;2.30;99.90;;;;;;4333073;33;20245;-66
2022/01/26 08:01:52;;;;;;;32.37;15.00;;;2.30;99.90;;;;;;4333106;33;20698;-66
2022/01/26 08:04:29;;;;;;;34.17;14.47;;;2.30;99.90;;;;;;4332502;33;20165;-65
2022/01/26 08:07:40;;;;;;;;;;;;;;;;;;;;;
2022/01/26 08:10:31;;;;;;;28.87;13.53;;;2.20;99.90;;;;;;4338121;33;20188;-66
2022/01/26 08:13:09;;;;;;;30.00;14.40;;;2.20;99.90;;;;;;4362248;32;20513;-66
2022/01/26 08:19:32;;;;;;;31.53;14.20;;;2.30;99.90;;;;;;4362623;32;20392;-66
2022/01/26 08:22:29;;;;;;;31.90;14.70;;;2.50;99.90;;;;;;4369852;32;20658;-66
2022/01/26 08:25:21;;;;;;;30.40;14.53;;;2.50;99.90;;;;;;4409490;32;20193;-65
2022/01/26 08:28:06;;;;;;;34.27;14.90;;;2.40;99.90;;;;;;4408445;32;20198;-66
2022/01/26 08:30:59;;;;;;;35.10;15.87;;;2.50;99.90;;;;;;4409729;32;20341;-66
2022/01/26 08:33:36;;;;;;;35.23;16.07;;;2.50;99.90;;;;;;4408528;32;20175;-65
2022/01/26 08:37:17;;;;;;;36.83;15.33;;;2.40;99.90;;;;;;4381386;32;20538;-66
2022/01/26 08:40:04;;;;;;;32.23;14.60;;;2.40;99.90;;;;;;4410441;32;20400;-66
2022/01/26 08:43:07;;;;;;;31.27;14.63;;;2.50;99.90;;;;;;4410321;32;20210;-66
2022/01/26 08:45:39;;;;;;;35.83;15.27;;;2.60;99.90;;;;;;4411275;32;20167;-66
2022/01/26 08:48:25;;;;;;;33.20;14.47;;;2.70;99.90;;;;;;4423910;32;20162;-65
2022/01/26 08:51:49;;;;;;;33.90;14.67;;;2.60;99.90;;;;;;4411046;32;20198;-66
2022/01/26 08:53:55;;;;;;;31.93;15.53;;;2.70;99.90;;;;;;4408479;32;20244;-66
2022/01/26 08:56:35;;;;;;;37.33;16.10;;;2.80;99.90;;;;;;4425030;32;20430;-66
2022/01/26 08:59:09;;;;;;;36.43;15.13;;;2.90;99.90;;;;;;4364464;32;20187;-66
2022/01/26 09:01:40;;;;;;;33.53;14.77;;;2.80;99.90;;;;;;4376550;32;20171;-66
2022/01/26 09:04:14;;;;;;;28.87;14.50;;;2.90;99.90;;;;;;4377522;32;20201;-66
2022/01/26 09:07:00;;;;;;;33.03;14.00;;;2.80;99.90;;;;;;4377986;32;20206;-66
2022/01/26 09:09:33;;;;;;;35.70;14.07;;;2.80;99.90;;;;;;4364203;32;20194;-66
2022/01/26 09:12:06;;;;;;;32.20;14.27;;;2.90;99.90;;;;;;4379511;32;20274;-66
2022/01/26 09:14:34;;;;;;;31.10;14.27;;;3.00;99.90;;;;;;4379402;32;20576;-66
2022/01/26 09:17:02;;;;;;;30.67;14.07;;;3.20;99.90;;;;;;4395327;32;20201;-66
2022/01/26 09:19:42;;;;;;;34.57;14.73;;;3.20;99.90;;;;;;4423505;32;20175;-66
2022/01/26 09:22:12;;;;;;;36.80;15.43;;;3.30;99.90;;;;;;4410885;32;20453;-66
2022/01/26 09:24:41;;;;;;;35.53;15.73;;;3.40;99.90;;;;;;4445551;32;20420;-66
2022/01/26 09:27:14;;;;;;;32.07;15.70;;;3.60;99.90;;;;;;4451576;32;20171;-66
2022/01/26 09:29:44;;;;;;;33.33;16.30;;;3.80;99.90;;;;;;4450876;32;20171;-66
2022/01/26 09:32:13;;;;;;;32.27;15.50;;;3.90;99.90;;;;;;4451894;32;20195;-66
2022/01/26 09:34:42;;;;;;;34.20;14.93;;;3.90;99.90;;;;;;4438556;32;20181;-66
2022/01/26 09:37:16;;;;;;;31.90;15.27;;;3.50;99.90;;;;;;4450088;32;20172;-66
2022/01/26 09:39:45;;;;;;;32.80;15.87;;;3.50;99.90;;;;;;4438066;32;20230;-66
2022/01/26 09:42:13;;;;;;;35.43;15.60;;;3.40;99.90;;;;;;4449785;32;20201;-65
2022/01/26 09:44:41;;;;;;;35.20;15.97;;;3.30;99.90;;;;;;4438074;32;20228;-66
2022/01/26 09:47:09;;;;;;;32.40;15.70;;;3.40;99.90;;;;;;4437633;32;20176;-65
2022/01/26 09:49:37;;;;;;;32.37;16.03;;;3.30;99.90;;;;;;4444001;32;20711;-65
2022/01/26 09:52:34;;;;;;;35.67;16.23;;;3.20;99.90;;;;;;4452926;32;20158;-65
2022/01/26 09:55:00;;;;;;;38.43;18.53;;;3.20;99.90;;;;;;4437743;32;20186;-64
2022/01/26 09:57:28;;;;;;;30.43;15.67;;;3.30;99.90;;;;;;4439541;32;20205;-66
2022/01/26 09:59:57;;;;;;;34.90;15.83;;;3.30;99.90;;;;;;4453091;32;20154;-65
2022/01/26 10:02:32;;;;;;;33.53;16.03;;;3.30;99.90;;;;;;4453136;32;20566;-65
2022/01/26 10:05:07;;;;;;;36.30;16.93;;;3.10;99.90;;;;;;4452362;32;20253;-65
2022/01/26 10:18:56;;;;;;;28.67;13.93;;;3.30;99.90;;;;;;4348009;33;20200;-65
2022/01/26 10:21:24;;;;;;;31.63;14.60;;;3.30;99.90;;;;;;4361122;32;20291;-65
2022/01/26 10:23:54;;;;;;;32.43;14.47;;;3.40;99.90;;;;;;4348013;33;20236;-64
2022/01/26 10:26:22;;;;;;;28.33;14.40;;;3.40;99.90;;;;;;4349526;32;20210;-65
2022/01/26 10:28:57;;;;;;;28.70;14.57;;;3.60;99.90;;;;;;4348221;33;20566;-65
2022/01/26 10:31:31;;;;;;;27.67;13.87;;;3.90;99.90;;;;;;4348021;32;20310;-65
2022/01/26 10:34:22;;;;;;;26.70;14.00;;;4.20;99.90;;;;;;4347570;33;20180;-65
2022/01/26 10:36:51;;;;;;;26.50;12.60;;;4.40;99.90;;;;;;4347204;32;20426;-65
2022/01/26 10:39:46;;;;;;;21.80;11.80;;;4.60;99.90;;;;;;4340620;32;20176;-65
2022/01/26 10:42:20;;;;;;;20.57;11.13;;;4.60;99.90;;;;;;4360439;32;20539;-65
2022/01/26 10:47:27;;;;;;;20.30;10.80;;;4.50;99.90;;;;;;4361959;32;20180;-65
2022/01/26 10:50:29;;;;;;;22.53;11.20;;;4.50;99.90;;;;;;4378718;32;20250;-65
2022/01/26 10:53:05;;;;;;;20.90;9.90;;;4.50;99.90;;;;;;4383816;32;20180;-65
2022/01/26 10:55:35;;;;;;;18.30;10.27;;;4.30;99.90;;;;;;4408918;32;20170;-64
2022/01/26 10:58:03;;;;;;;20.67;9.77;;;4.00;99.90;;;;;;4452662;32;20207;-65
2022/01/26 11:00:39;;;;;;;18.63;10.00;;;4.10;99.90;;;;;;4443550;32;20202;-65
2022/01/26 11:03:40;;;;;;;20.80;10.13;;;4.00;99.90;;;;;;4362741;32;20210;-65
2022/01/26 11:06:19;;;;;;;18.97;9.37;;;4.00;99.90;;;;;;4366714;32;20171;-65
2022/01/26 11:08:47;;;;;;;15.50;8.53;;;3.90;99.90;;;;;;4390312;32;20281;-65
2022/01/26 11:11:24;;;;;;;15.67;8.43;;;3.70;99.90;;;;;;4379060;32;20679;-65
2022/01/26 11:13:53;;;;;;;12.67;8.40;;;3.60;99.90;;;;;;4381095;32;20184;-65
2022/01/26 11:17:00;;;;;;;20.43;8.93;;;3.60;99.90;;;;;;4380297;32;20183;-66
2022/01/26 11:19:27;;;;;;;19.10;8.77;;;3.60;99.90;;;;;;4380659;32;20187;-65
2022/01/26 11:22:06;;;;;;;18.00;9.10;;;3.60;99.90;;;;;;4393187;32;20156;-65
2022/01/26 11:24:51;;;;;;;17.73;9.73;;;3.60;99.90;;;;;;4381174;32;20175;-65
2022/01/26 11:27:19;;;;;;;16.13;8.20;;;3.50;99.90;;;;;;4380105;32;20188;-65
2022/01/26 11:29:53;;;;;;;16.57;7.17;;;3.50;99.90;;;;;;4380328;32;20191;-65
2022/01/26 11:32:31;;;;;;;16.77;7.43;;;3.30;99.90;;;;;;4379906;32;20627;-65
2022/01/26 11:35:04;;;;;;;14.63;6.67;;;3.30;99.90;;;;;;4441894;32;20177;-65
2022/01/26 11:37:45;;;;;;;13.63;6.60;;;3.30;99.90;;;;;;4456187;32;20177;-65
2022/01/26 11:46:12;;;;;;;15.27;7.83;;;3.20;99.90;;;;;;4445546;32;20190;-64
2022/01/26 11:48:39;;;;;;;17.80;8.47;;;3.10;99.90;;;;;;4454273;32;20177;-64
2022/01/26 11:51:07;;;;;;;16.40;8.73;;;3.00;99.90;;;;;;4456683;32;20499;-65
2022/01/26 11:53:34;;;;;;;17.90;8.90;;;3.00;99.90;;;;;;4454370;32;20162;-64
2022/01/26 11:56:10;;;;;;;17.43;9.07;;;2.90;99.90;;;;;;4456094;32;20181;-65
2022/01/26 11:58:41;;;;;;;20.70;9.67;;;2.90;99.90;;;;;;4456207;32;20230;-65
2022/01/26 12:03:59;;;;;;;21.67;9.93;;;2.70;99.90;;;;;;4443686;32;20228;-66
2022/01/26 12:06:36;;;;;;;20.93;10.23;;;2.80;99.90;;;;;;4449848;32;20436;-64
2022/01/26 12:09:07;;;;;;;18.93;10.27;;;2.70;99.90;;;;;;4455781;32;20165;-65
2022/01/26 12:11:35;;;;;;;25.40;11.40;;;2.70;99.90;;;;;;4456324;32;20162;-64
2022/01/26 12:14:12;;;;;;;26.27;11.80;;;2.60;99.90;;;;;;4454485;32;20515;-65
2022/01/26 12:16:45;;;;;;;25.17;11.53;;;2.50;99.90;;;;;;4456278;32;20165;-65
2022/01/26 12:36:17;;;;;;;23.90;12.13;;;2.30;99.90;;;;;;4453779;32;20559;-64
2022/01/26 12:38:49;;;;;;;27.00;13.13;;;2.30;99.90;;;;;;4454833;32;20245;-64
2022/01/26 12:41:35;;;;;;;24.30;12.23;;;2.30;99.90;;;;;;4451747;32;20190;-64
2022/01/26 12:44:14;;;;;;;25.57;13.33;;;2.30;99.90;;;;;;4454017;32;20229;-64
2022/01/26 12:46:41;;;;;;;23.50;12.20;;;2.30;99.90;;;;;;4454350;32;20233;-64
2022/01/26 12:49:19;;;;;;;24.90;12.03;;;2.30;99.90;;;;;;4436315;32;20175;-65
2022/01/26 12:51:51;;;;;;;22.27;12.03;;;2.20;99.90;;;;;;4451764;32;20250;-64
2022/01/26 12:54:21;;;;;;;24.87;12.43;;;2.20;99.90;;;;;;4454169;32;20209;-64
2022/01/26 12:56:48;;;;;;;23.63;12.13;;;2.10;99.90;;;;;;4454066;32;20259;-63
2022/01/26 12:59:20;;;;;;;23.17;12.07;;;2.10;99.90;;;;;;4455379;32;20181;-63
2022/01/26 13:01:52;;;;;;;23.17;12.17;;;2.10;99.90;;;;;;4453400;32;20337;-64
2022/01/26 13:04:19;;;;;;;26.67;12.43;;;2.10;99.90;;;;;;4454305;32;20192;-64
2022/01/26 13:06:52;;;;;;;23.87;11.97;;;2.10;99.90;;;;;;4454647;32;20204;-63
2022/01/26 13:09:19;;;;;;;23.00;12.10;;;2.00;99.90;;;;;;4455091;32;20208;-64
2022/01/26 13:11:48;;;;;;;23.63;11.47;;;2.00;99.90;;;;;;4451296;32;20182;-64
2022/01/26 13:14:26;;;;;;;22.40;11.63;;;2.00;99.90;;;;;;4449619;32;20161;-63
2022/01/26 13:17:17;;;;;;;22.00;11.63;;;2.00;99.90;;;;;;4453893;32;20235;-63
2022/01/26 13:23:06;;;;;;;22.60;11.43;;;2.00;99.90;;;;;;4453047;32;20177;-63
2022/01/26 13:31:25;;;;;;;23.77;12.20;;;2.00;99.90;;;;;;4453377;32;20607;-63
2022/01/26 13:34:50;;;;;;;22.13;11.27;;;2.00;99.90;;;;;;4453120;32;20200;-63
2022/01/26 13:53:30;;;;;;;27.30;13.70;;;2.20;99.90;;;;;;4379420;32;20432;-63
2022/01/26 14:01:07;;;;;;;25.13;13.30;;;2.30;99.90;;;;;;4390005;32;20185;-63
2022/01/26 14:03:35;;;;;;;23.30;12.43;;;2.30;99.90;;;;;;4377834;32;20190;-63
2022/01/26 14:06:03;;;;;;;22.47;12.33;;;2.40;99.90;;;;;;4377804;32;20187;-63
2022/01/26 14:08:30;;;;;;;23.63;12.53;;;2.40;99.90;;;;;;4377317;32;20262;-63
2022/01/26 14:10:57;;;;;;;24.17;12.53;;;2.40;99.90;;;;;;4378788;32;20242;-63
2022/01/26 14:13:26;;;;;;;26.13;13.17;;;2.50;99.90;;;;;;4389866;32;20206;-63
2022/01/26 14:15:56;;;;;;;23.03;12.53;;;2.60;99.90;;;;;;4393747;32;20171;-63
2022/01/26 14:21:11;;;;;;;25.43;13.37;;;2.60;99.90;;;;;;4406065;32;20179;-64
2022/01/26 14:24:10;;;;;;;23.47;13.03;;;2.60;99.90;;;;;;4444791;32;20298;-63
2022/01/26 14:26:40;;;;;;;31.23;14.27;;;2.60;99.90;;;;;;4451257;32;20194;-63
2022/01/26 14:29:16;;;;;;;25.43;13.60;;;2.50;99.90;;;;;;4452339;32;20192;-63
2022/01/26 14:32:05;;;;;;;26.47;14.30;;;2.60;99.90;;;;;;4452201;32;20251;-63
2022/01/26 15:35:06;;;;;;;40.80;20.50;;;3.20;99.90;;;;;;4450442;32;20542;-63
2022/01/26 15:51:03;;;;;;;43.63;19.83;;;3.50;99.90;;;;;;4447368;32;20182;-63
2022/01/26 16:04:41;;;;;;;33.50;16.73;;;3.50;99.90;;;;;;4438666;32;20331;-63
2022/01/26 16:07:21;;;;;;;35.83;17.33;;;3.50;99.90;;;;;;4438932;32;20182;-63
2022/01/26 16:12:44;;;;;;;31.93;16.43;;;3.50;99.90;;;;;;4439259;32;20249;-63
2022/01/26 16:21:17;;;;;;;29.87;14.77;;;3.50;99.90;;;;;;4438718;32;20481;-63
2022/01/26 17:24:17;;;;;;;17.70;9.60;;;3.40;99.90;;;;;;4437658;32;20190;-63
2022/01/26 17:34:26;;;;;;;17.43;9.57;;;3.30;99.90;;;;;;4437830;32;20186;-63
2022/01/26 18:16:49;;;;;;;21.53;11.33;;;3.10;99.90;;;;;;4438790;32;20269;-65
2022/01/26 18:51:40;;;;;;;22.70;11.37;;;2.90;99.90;;;;;;4445284;32;20214;-64
2022/01/26 18:54:09;;;;;;;23.33;11.63;;;2.90;99.90;;;;;;4444729;32;20155;-64
2022/01/26 18:56:46;;;;;;;23.17;11.77;;;2.90;99.90;;;;;;4445260;32;20176;-64
2022/01/26 18:59:17;;;;;;;25.67;12.57;;;2.90;99.90;;;;;;4439164;32;20192;-64
2022/01/26 19:01:46;;;;;;;23.30;12.03;;;2.90;99.90;;;;;;4436600;32;20188;-63
2022/01/26 19:04:35;;;;;;;25.80;12.70;;;2.80;99.90;;;;;;4437204;32;20235;-63
2022/01/26 19:07:04;;;;;;;27.03;13.30;;;2.80;99.90;;;;;;4440571;32;20185;-63
2022/01/26 19:09:40;;;;;;;27.07;13.97;;;2.80;99.90;;;;;;4440135;32;20190;-64
2022/01/26 19:12:11;;;;;;;26.70;13.90;;;2.80;99.90;;;;;;4436406;32;20211;-64
2022/01/26 19:14:43;;;;;;;26.87;13.70;;;2.80;99.90;;;;;;4444540;32;20201;-63
2022/01/26 19:31:45;;;;;;;25.90;13.27;;;2.70;99.90;;;;;;4402159;32;20247;-64
2022/01/26 19:44:50;;;;;;;22.33;11.43;;;2.60;99.90;;;;;;4408011;32;20229;-63
2022/01/26 19:53:07;;;;;;;23.10;11.67;;;2.40;99.90;;;;;;4407005;32;20175;-65
2022/01/26 19:55:38;;;;;;;21.00;10.70;;;2.40;99.90;;;;;;4412506;32;20563;-64
2022/01/26 19:58:09;;;;;;;22.67;12.30;;;2.40;99.90;;;;;;4399628;32;20186;-64
2022/01/26 20:00:43;;;;;;;22.07;11.83;;;2.40;99.90;;;;;;4416317;32;20166;-63
2022/01/26 20:03:22;;;;;;;25.50;12.70;;;2.40;99.90;;;;;;4438674;32;20467;-63
2022/01/26 20:05:54;;;;;;;25.77;13.13;;;2.40;99.90;;;;;;4441570;32;20381;-63
2022/01/26 20:08:34;;;;;;;27.40;13.17;;;2.40;99.90;;;;;;4439574;32;20261;-64
2022/01/26 20:11:23;;;;;;;23.73;12.43;;;2.40;99.90;;;;;;4440399;32;20208;-63
2022/01/26 20:13:54;;;;;;;24.30;11.83;;;2.40;99.90;;;;;;4439907;32;20218;-63
2022/01/26 20:16:27;;;;;;;23.80;12.67;;;2.40;99.90;;;;;;4439149;32;20196;-63
2022/01/26 20:18:55;;;;;;;25.07;13.40;;;2.40;99.90;;;;;;4439826;32;20174;-63
2022/01/26 20:21:23;;;;;;;25.03;12.30;;;2.40;99.90;;;;;;4452547;32;20202;-63
2022/01/26 20:23:57;;;;;;;23.00;12.00;;;2.40;99.90;;;;;;4439581;32;20221;-63
2022/01/26 20:26:32;;;;;;;23.03;12.20;;;2.40;99.90;;;;;;4440745;32;20221;-63
2022/01/26 20:29:00;;;;;;;22.10;11.40;;;2.40;99.90;;;;;;4439876;32;20217;-63
2022/01/26 20:31:27;;;;;;;20.77;12.03;;;2.40;99.90;;;;;;4439168;32;20197;-63
2022/01/26 20:33:56;;;;;;;21.23;11.13;;;2.30;99.90;;;;;;4452370;32;20175;-64
2022/01/26 20:36:32;;;;;;;20.07;10.87;;;2.30;99.90;;;;;;4451654;32;20251;-63
2022/01/26 20:39:04;;;;;;;19.93;11.00;;;2.30;99.90;;;;;;4438590;32;20183;-63
2022/01/26 20:41:33;;;;;;;19.87;10.50;;;2.30;99.90;;;;;;4438392;32;20414;-64
2022/01/26 20:44:00;;;;;;;19.90;10.27;;;2.30;99.90;;;;;;4438835;32;20206;-64
2022/01/26 20:46:31;;;;;;;21.87;10.47;;;2.20;99.90;;;;;;4451597;32;20170;-64
2022/01/26 20:48:59;;;;;;;19.27;9.80;;;2.20;99.90;;;;;;4439028;32;20190;-64
2022/01/26 20:51:27;;;;;;;17.87;9.47;;;2.20;99.90;;;;;;4438372;32;20536;-64
2022/01/26 20:54:08;;;;;;;16.47;9.27;;;2.30;99.90;;;;;;4438524;32;20182;-64
2022/01/26 20:57:37;;;;;;;17.43;9.07;;;2.30;99.90;;;;;;4440459;32;20380;-64
2022/01/26 21:00:38;;;;;;;18.33;9.00;;;2.20;99.90;;;;;;4393517;32;20174;-64
2022/01/26 21:03:37;;;;;;;17.13;8.60;;;2.30;99.90;;;;;;4346487;33;20180;-64
2022/01/26 21:06:17;;;;;;;15.90;8.03;;;2.30;99.90;;;;;;4346512;33;20192;-64
2022/01/26 21:09:17;;;;;;;15.07;8.77;;;2.30;99.90;;;;;;4346444;33;20179;-64
2022/01/26 21:12:03;;;;;;;15.20;8.50;;;2.30;99.90;;;;;;4347108;33;20416;-64
2022/01/26 21:14:51;;;;;;;18.23;9.20;;;2.30;99.90;;;;;;4346897;33;20276;-63
2022/01/26 21:17:34;;;;;;;17.93;8.93;;;2.20;99.90;;;;;;4347577;32;20287;-63
2022/01/26 21:20:22;;;;;;;18.07;9.77;;;2.10;99.90;;;;;;4361664;32;20175;-64
2022/01/26 21:22:58;;;;;;;18.53;10.17;;;2.00;99.90;;;;;;4360811;32;20473;-64
2022/01/26 21:25:26;;;;;;;20.33;9.70;;;2.00;99.90;;;;;;4362154;32;20202;-64
2022/01/26 21:28:27;;;;;;;;;;;;;;;;;;;;;
2022/01/26 21:31:00;;;;;;;20.73;10.13;;;2.00;99.90;;;;;;4332144;33;20163;-64
2022/01/26 21:33:45;;;;;;;20.43;10.70;;;1.90;99.90;;;;;;4331768;33;20571;-64
2022/01/26 21:36:24;;;;;;;22.23;11.73;;;1.90;99.90;;;;;;4332169;33;20172;-64
2022/01/26 21:39:07;;;;;;;24.17;12.00;;;1.90;99.90;;;;;;4319284;32;20172;-64
2022/01/26 21:41:45;;;;;;;22.87;11.27;;;1.80;99.90;;;;;;4388026;32;20227;-64
2022/01/26 21:44:14;;;;;;;20.27;11.10;;;1.80;99.90;;;;;;4407736;32;20211;-64
2022/01/26 21:46:43;;;;;;;22.30;11.33;;;1.80;99.90;;;;;;4394127;32;20182;-64
2022/01/26 21:49:21;;;;;;;23.30;11.90;;;1.70;99.90;;;;;;4394542;32;20360;-65
2022/01/26 21:52:06;;;;;;;22.03;12.17;;;1.80;99.90;;;;;;4406316;32;20186;-64
2022/01/26 21:54:35;;;;;;;23.73;11.80;;;1.70;99.90;;;;;;4405945;32;20179;-64
2022/01/26 21:57:05;;;;;;;23.13;11.80;;;1.70;99.90;;;;;;4393757;32;20517;-64
2022/01/26 21:59:39;;;;;;;22.83;12.10;;;1.70;99.90;;;;;;4393815;32;20255;-64
2022/01/26 22:02:11;;;;;;;23.83;12.47;;;1.70;99.90;;;;;;4407528;32;20544;-64
2022/01/26 22:04:42;;;;;;;24.17;13.07;;;1.70;99.90;;;;;;4381087;32;20174;-64
2022/01/26 22:07:10;;;;;;;26.23;12.47;;;1.70;99.90;;;;;;4393119;32;20202;-64
2022/01/26 22:09:41;;;;;;;22.97;12.50;;;1.60;99.90;;;;;;4453237;32;20205;-64
2022/01/26 22:12:11;;;;;;;24.40;12.40;;;1.60;99.90;;;;;;4449524;32;20244;-64
2022/01/26 22:14:44;;;;;;;27.30;13.53;;;1.60;99.90;;;;;;4439596;32;20228;-64
2022/01/26 22:17:12;;;;;;;24.67;12.97;;;1.60;99.90;;;;;;4436989;32;20193;-64
2022/01/26 22:19:48;;;;;;;24.67;12.93;;;1.70;99.90;;;;;;4437154;32;20223;-64
2022/01/26 22:22:22;;;;;;;22.70;12.50;;;1.70;99.90;;;;;;4437859;32;20237;-64
2022/01/26 22:24:50;;;;;;;28.33;13.43;;;1.70;99.90;;;;;;4436546;32;20182;-64
2022/01/26 22:27:27;;;;;;;23.87;12.50;;;1.70;99.90;;;;;;4437442;32;20197;-64
2022/01/26 22:30:06;;;;;;;23.40;12.40;;;1.70;99.90;;;;;;4437181;32;20186;-64
2022/01/26 22:32:45;;;;;;;26.73;12.87;;;1.70;99.90;;;;;;4437049;32;20182;-64
2022/01/26 22:39:22;;;;;;;25.10;12.27;;;1.70;99.90;;;;;;4393630;32;20754;-63
2022/01/26 22:42:21;;;;;;;25.00;13.40;;;1.70;99.90;;;;;;4405590;32;20216;-63
2022/01/26 22:44:52;;;;;;;24.20;12.10;;;1.70;99.90;;;;;;4405976;32;20216;-63
2022/01/26 22:47:43;;;;;;;25.80;12.93;;;1.70;99.90;;;;;;4398141;32;20175;-64
2022/01/26 22:50:20;;;;;;;22.93;12.33;;;1.70;99.90;;;;;;4393580;32;20182;-64
2022/01/26 22:53:18;;;;;;;21.67;11.13;;;1.70;99.90;;;;;;4405141;32;20219;-64
2022/01/26 22:57:01;;;;;;;23.43;11.13;;;1.60;99.90;;;;;;4330114;33;20250;-64
2022/01/26 23:00:25;;;;;;;18.97;10.37;;;1.60;99.90;;;;;;4303332;33;20175;-64
2022/01/26 23:08:15;;;;;;;23.83;11.03;;;1.50;99.90;;;;;;4177293;34;20180;-64
2022/01/26 23:11:17;;;;;;;;;;;;;;;;;;;;;
2022/01/26 23:15:19;;;;;;;25.17;10.87;;;1.50;99.90;;;;;;4388706;32;20185;-65
2022/01/26 23:18:38;;;;;;;22.47;10.93;;;1.50;99.90;;;;;;4387722;32;20209;-65
2022/01/26 23:22:09;;;;;;;22.87;11.77;;;1.60;99.90;;;;;;4373678;32;20157;-65
